createdAt,value
2023-01-13T00:00:50.311Z,10.17
2023-01-13T00:05:52.030Z,10.22
2023-01-13T00:10:53.890Z,10.26
2023-01-13T00:16:17.066Z,10.24
2023-01-13T00:21:24.368Z,10.36
2023-01-13T00:26:30.819Z,10.38
2023-01-13T00:31:32.682Z,10.36
2023-01-13T00:36:34.466Z,10.31
2023-01-13T00:41:55.127Z,10.34
2023-01-13T00:46:56.926Z,10.38
2023-01-13T00:52:01.398Z,10.24
2023-01-13T00:57:04.655Z,10.34
2023-01-13T01:02:06.537Z,10.36
2023-01-13T01:07:08.492Z,10.32
2023-01-13T01:12:10.220Z,10.42
2023-01-13T01:17:11.930Z,10.41
2023-01-13T01:22:13.633Z,10.37
2023-01-13T01:27:15.413Z,10.32
2023-01-13T01:32:17.143Z,10.26
2023-01-13T01:37:18.910Z,10.28
2023-01-13T01:42:39.120Z,10.17
2023-01-13T01:47:42.539Z,10.28
2023-01-13T01:52:50.213Z,10.37
2023-01-13T01:57:55.828Z,10.30
2023-01-13T02:02:59.383Z,10.21
2023-01-13T02:08:01.894Z,10.14
2023-01-13T02:13:08.345Z,10.20
2023-01-13T02:18:38.036Z,10.04
2023-01-13T02:24:02.941Z,10.14
2023-01-13T02:30:00.690Z,10.25
2023-01-13T02:35:20.817Z,10.27
2023-01-13T02:40:32.487Z,10.28
2023-01-13T02:45:47.341Z,10.44
2023-01-13T02:50:59.907Z,10.25
2023-01-13T02:56:03.574Z,10.32
2023-01-13T03:01:05.514Z,10.35
2023-01-13T03:06:29.989Z,10.23
2023-01-13T03:11:45.324Z,10.37
2023-01-13T03:17:07.162Z,10.33
2023-01-13T03:22:14.681Z,10.42
2023-01-13T03:27:37.020Z,10.33
2023-01-13T03:32:55.244Z,10.21
2023-01-13T03:38:05.716Z,10.10
2023-01-13T03:43:31.341Z,9.96
2023-01-13T03:48:36.094Z,9.77
2023-01-13T03:53:47.006Z,9.56
2023-01-13T03:58:49.315Z,9.05
2023-01-13T04:03:54.907Z,9.35
2023-01-13T04:09:06.572Z,9.35
2023-01-13T04:14:11.549Z,9.23
2023-01-13T04:19:15.861Z,8.98
2023-01-13T04:24:17.470Z,8.89
2023-01-13T04:29:19.039Z,8.69
2023-01-13T04:34:20.825Z,8.49
2023-01-13T04:39:22.431Z,8.30
2023-01-13T04:44:24.054Z,8.27
2023-01-13T04:49:25.740Z,8.14
2023-01-13T04:54:29.696Z,8.32
2023-01-13T04:59:32.799Z,8.25
2023-01-13T05:04:36.403Z,8.24
2023-01-13T05:09:38.077Z,8.02
2023-01-13T05:14:58.079Z,7.95
2023-01-13T05:19:59.743Z,7.97
2023-01-13T05:25:20.103Z,8.02
2023-01-13T05:30:24.054Z,8.00
2023-01-13T05:35:26.051Z,8.02
2023-01-13T05:40:45.959Z,7.96
2023-01-13T05:45:51.362Z,7.94
2023-01-13T05:50:54.104Z,7.84
2023-01-13T05:55:56.515Z,7.95
2023-01-13T06:01:07.195Z,7.83
2023-01-13T06:06:10.026Z,7.76
2023-01-13T06:11:11.604Z,7.74
2023-01-13T06:16:13.352Z,7.74
2023-01-13T06:21:15.031Z,7.77
2023-01-13T06:26:20.574Z,7.82
2023-01-13T06:31:22.485Z,7.70
2023-01-13T06:36:30.042Z,7.57
2023-01-13T06:41:52.036Z,7.50
2023-01-13T06:46:53.705Z,7.42
2023-01-13T06:51:55.302Z,7.73
2023-01-13T06:57:00.052Z,7.72
2023-01-13T07:02:03.004Z,7.72
2023-01-13T07:07:04.794Z,7.57
2023-01-13T07:12:06.827Z,7.60
2023-01-13T07:17:08.427Z,7.71
2023-01-13T07:22:10.010Z,7.81
2023-01-13T07:27:11.660Z,8.03
2023-01-13T07:32:13.267Z,7.95
2023-01-13T07:37:14.883Z,7.96
2023-01-13T07:42:35.096Z,7.82
2023-01-13T07:47:36.723Z,7.83
2023-01-13T07:52:38.276Z,7.89
2023-01-13T07:57:39.871Z,7.78
2023-01-13T08:02:41.764Z,7.92
2023-01-13T08:07:43.367Z,7.92
2023-01-13T08:13:03.559Z,8.02
2023-01-13T08:18:05.169Z,7.95
2023-01-13T08:23:07.475Z,7.92
2023-01-13T08:28:09.242Z,8.07
2023-01-13T08:33:12.511Z,8.24
2023-01-13T08:38:14.166Z,8.15
2023-01-13T08:43:16.080Z,8.25
2023-01-13T08:48:17.660Z,8.17
2023-01-13T08:53:20.400Z,8.22
2023-01-13T08:58:21.986Z,8.22
2023-01-13T09:03:23.571Z,7.98
2023-01-13T09:08:25.177Z,8.14
2023-01-13T09:13:26.815Z,8.06
2023-01-13T09:18:28.398Z,8.20
2023-01-13T09:23:29.997Z,8.27
2023-01-13T09:28:32.638Z,8.14
2023-01-13T09:33:52.821Z,8.18
2023-01-13T09:38:54.465Z,7.95
2023-01-13T09:43:59.401Z,8.07
2023-01-13T09:49:03.723Z,8.10
2023-01-13T09:54:28.337Z,8.15
2023-01-13T09:59:34.728Z,8.36
2023-01-13T10:04:36.438Z,8.28
2023-01-13T10:09:52.800Z,8.66
2023-01-13T10:14:57.647Z,8.52
2023-01-13T10:20:17.745Z,8.43
2023-01-13T10:25:25.176Z,8.68
2023-01-13T10:30:33.681Z,8.39
2023-01-13T10:35:53.692Z,8.42
2023-01-13T10:40:55.271Z,8.46
2023-01-13T10:46:07.694Z,8.44
2023-01-13T10:51:20.366Z,8.67
2023-01-13T10:56:26.544Z,8.47
2023-01-13T11:01:30.443Z,8.52
2023-01-13T11:06:34.465Z,8.42
2023-01-13T11:11:44.929Z,8.58
2023-01-13T11:16:54.113Z,9.01
2023-01-13T11:22:11.077Z,8.96
2023-01-13T11:27:27.776Z,9.58
2023-01-13T11:32:36.844Z,9.33
2023-01-13T11:37:43.489Z,9.16
2023-01-13T11:43:02.954Z,9.17
2023-01-13T11:48:05.008Z,9.22
2023-01-13T11:53:42.530Z,9.30
2023-01-13T11:59:11.912Z,9.16
2023-01-13T12:04:41.664Z,9.23
2023-01-13T12:10:26.164Z,9.35
2023-01-13T12:16:09.928Z,9.41
2023-01-13T12:21:36.885Z,9.46
2023-01-13T12:26:43.885Z,9.22
2023-01-13T12:31:50.261Z,9.05
2023-01-13T12:37:33.468Z,8.91
2023-01-13T12:43:09.960Z,8.98
2023-01-13T12:48:46.445Z,8.95
2023-01-13T12:53:48.195Z,8.78
2023-01-13T12:58:49.758Z,8.63
2023-01-13T13:04:18.791Z,8.05
2023-01-13T13:09:26.647Z,7.80
2023-01-13T13:14:37.459Z,7.87
2023-01-13T13:19:39.051Z,7.97
2023-01-13T13:24:42.283Z,8.02
2023-01-13T13:30:04.757Z,8.02
2023-01-13T13:35:31.317Z,7.95
2023-01-13T13:40:59.503Z,7.71
2023-01-13T13:46:20.272Z,7.71
2023-01-13T13:51:39.101Z,7.66
2023-01-13T13:56:45.304Z,7.73
2023-01-13T14:01:53.716Z,7.98
2023-01-13T14:06:58.799Z,8.04
2023-01-13T14:12:08.770Z,8.09
2023-01-13T14:17:22.454Z,8.03
2023-01-13T14:22:24.426Z,8.16
2023-01-13T14:27:27.835Z,8.07
2023-01-13T14:32:36.638Z,8.01
2023-01-13T14:37:43.495Z,7.73
2023-01-13T14:42:45.079Z,7.69
2023-01-13T14:47:52.799Z,7.86
2023-01-13T14:53:00.396Z,7.91
2023-01-13T14:58:20.410Z,7.78
2023-01-13T15:03:22.067Z,8.04
2023-01-13T15:08:29.594Z,8.03
2023-01-13T15:13:35.588Z,7.83
2023-01-13T15:18:40.117Z,7.75
2023-01-13T15:23:42.112Z,7.88
2023-01-13T15:28:43.785Z,7.88
2023-01-13T15:33:45.639Z,7.80
2023-01-13T15:38:47.320Z,7.57
2023-01-13T15:44:08.169Z,7.58
2023-01-13T15:49:25.255Z,7.31
2023-01-13T15:54:26.828Z,7.33
2023-01-13T15:59:28.499Z,7.32
2023-01-13T16:04:30.094Z,7.27
2023-01-13T16:09:31.685Z,7.31
2023-01-13T16:14:33.514Z,7.21
2023-01-13T16:19:35.099Z,7.38
2023-01-13T16:24:36.793Z,7.50
2023-01-13T16:29:38.389Z,7.61
2023-01-13T16:34:41.185Z,7.51
2023-01-13T16:39:44.304Z,7.46
2023-01-13T16:44:48.379Z,7.45
2023-01-13T16:49:50.033Z,7.45
2023-01-13T16:54:51.636Z,7.61
2023-01-13T16:59:53.219Z,7.48
2023-01-13T17:04:54.827Z,7.34
2023-01-13T17:09:56.571Z,7.48
2023-01-13T17:14:58.153Z,7.51
2023-01-13T17:20:00.043Z,7.46
2023-01-13T17:25:01.655Z,7.21
2023-01-13T17:30:03.413Z,7.23
2023-01-13T17:35:06.035Z,7.24
2023-01-13T17:40:08.149Z,7.33
2023-01-13T17:45:12.107Z,7.26
2023-01-13T17:50:13.710Z,7.15
2023-01-13T17:55:15.347Z,7.11
2023-01-13T18:00:17.269Z,7.09
2023-01-13T18:05:18.938Z,7.06
2023-01-13T18:10:21.199Z,7.17
2023-01-13T18:15:22.934Z,7.06
2023-01-13T18:20:43.121Z,7.00
2023-01-13T18:26:05.075Z,7.08
2023-01-13T18:31:08.802Z,7.08
2023-01-13T18:36:10.809Z,7.03
2023-01-13T18:41:30.943Z,6.89
2023-01-13T18:46:32.612Z,7.02
2023-01-13T18:51:34.236Z,7.06
2023-01-13T18:56:35.893Z,6.93
2023-01-13T19:01:38.235Z,6.90
2023-01-13T19:06:40.374Z,7.07
2023-01-13T19:11:46.557Z,7.04
2023-01-13T19:16:48.224Z,7.31
2023-01-13T19:21:49.813Z,7.27
2023-01-13T19:26:51.903Z,7.10
2023-01-13T19:31:53.513Z,7.08
2023-01-13T19:36:55.592Z,6.83
2023-01-13T19:42:15.884Z,6.68
2023-01-13T19:47:18.192Z,6.71
2023-01-13T19:52:19.774Z,6.75
2023-01-13T19:57:22.522Z,6.64
2023-01-13T20:02:31.748Z,6.47
2023-01-13T20:07:35.042Z,6.59
2023-01-13T20:12:36.700Z,6.44
2023-01-13T20:17:38.518Z,6.40
2023-01-13T20:22:40.774Z,6.46
2023-01-13T20:27:42.890Z,6.44
2023-01-13T20:32:44.734Z,6.57
2023-01-13T20:37:46.337Z,6.38
2023-01-13T20:42:47.984Z,6.30
2023-01-13T20:47:49.581Z,6.30
2023-01-13T20:52:52.643Z,5.92
2023-01-13T20:57:54.235Z,5.72
2023-01-13T21:02:56.140Z,5.46
2023-01-13T21:07:57.832Z,5.41
2023-01-13T21:13:18.228Z,5.55
2023-01-13T21:18:38.627Z,5.62
2023-01-13T21:23:44.609Z,5.78
2023-01-13T21:28:46.632Z,5.75
2023-01-13T21:33:53.442Z,5.68
2023-01-13T21:38:57.494Z,5.67
2023-01-13T21:44:17.698Z,5.70
2023-01-13T21:49:19.290Z,5.57
2023-01-13T21:54:20.872Z,5.81
2023-01-13T21:59:22.477Z,5.91
2023-01-13T22:04:24.061Z,5.89
2023-01-13T22:09:25.787Z,5.85
2023-01-13T22:14:27.372Z,5.97
2023-01-13T22:19:30.457Z,6.03
2023-01-13T22:24:32.077Z,5.99
2023-01-13T22:29:34.021Z,6.01
2023-01-13T22:34:35.697Z,6.06
2023-01-13T22:39:37.434Z,6.10
2023-01-13T22:44:39.003Z,6.19
2023-01-13T22:49:42.145Z,6.23
2023-01-13T22:54:44.100Z,6.37
2023-01-13T22:59:45.748Z,6.37
2023-01-13T23:04:47.424Z,6.30
2023-01-13T23:09:49.069Z,6.34
2023-01-13T23:14:50.761Z,6.48
2023-01-13T23:19:52.476Z,6.33
2023-01-13T23:24:54.059Z,6.43
2023-01-13T23:29:56.167Z,6.34
2023-01-13T23:34:57.847Z,6.34
2023-01-13T23:39:59.438Z,6.32
2023-01-13T23:45:01.067Z,6.43
2023-01-13T23:50:02.659Z,6.48
2023-01-13T23:55:04.565Z,6.23
